Información del aeropuerto LICC

Información de pista
Pista 08 Longitud 7989 ft Anchura 148 ft
Elevación 37 ft Umbral 312 ft Rumbo 84
Pista 26 Longitud 7989 ft Anchura 148 ft
Elevación 17 ft Umbral 279 ft Rumbo 264
Frecuencias del aeropuerto
Tipo APP Nombre APP Frecuencia 119.25 MHZ
Tipo DIR Nombre DIRECTOR Frecuencia 120.8 MHZ
Tipo GND Nombre GND Frecuencia 129.725 MHZ
Tipo TWR Nombre TWR Frecuencia 118.7 MHZ
Radioayudas del aeropuerto
Tipo NDB Nombre Catania Frecuencia 345 KHZ
Tipo VOR-DME Nombre Catania Fontanarossa Frecuencia 116250 KHZ
Tipo NDB Nombre Catania Fontanarossa Frecuencia 407 KHZ
Información meteorológica del aeropuerto y NOTAM
ADDS - METARS form results

(2242 UTC 19 May 2022)
Data provider http://aviationweather.gov/metar/data/
 
METAR text: LICC 192220Z 07003KT 040V100 CAVOK 18/14 Q1027
Conditions at: LICC (CATANIA/FONTANAR, IT) observed 2220 UTC 19 May 2022
Temperature: 18.0°C (64°F)
Dewpoint: 14.0°C (57°F) [RH = 77%]
Pressure (altimeter): 30.32 inches Hg (1027.0 mb)
Winds: from the ENE (70 degrees) at 3 MPH (3 knots; 1.5 m/s)
Visibility: 6 or more miles (10+ km)
Ceiling: ceiling and visibility are OK
Clouds: unknown
Weather: no significant weather observed at this time

METAR text: LICC 192150Z 06005KT 9999 FEW060 18/14 Q1027
Conditions at: LICC (CATANIA/FONTANAR, IT) observed 2150 UTC 19 May 2022
Temperature: 18.0°C (64°F)
Dewpoint: 14.0°C (57°F) [RH = 77%]
Pressure (altimeter): 30.32 inches Hg (1027.0 mb)
Winds: from the ENE (60 degrees) at 6 MPH (5 knots; 2.6 m/s)
Visibility: 6 or more miles (10+ km)
Ceiling: at least 12,000 feet AGL
Clouds: few clouds at 6000 feet AGL
Weather: no significant weather observed at this time

Forecast for: LICC (CATANIA/FONTANAR, IT)
Text: TAF LICC 191700Z 1918/2018 07010KT 9999 FEW030
Forecast period: 1800 UTC 19 May 2022 to 1800 UTC 20 May 2022
Forecast type: FROM: standard forecast or significant change
Winds: from the ENE (70 degrees) at 12 MPH (10 knots; 5.1 m/s)
Visibility: 6 or more miles (10+ km)
Ceiling: at least 12,000 feet AGL
Clouds: few clouds at 3000 feet AGL
Weather: no significant weather forecast for this period
Text: BECMG 1918/1920 VRB05KT
Forecast period: 1800 UTC 19 May 2022 to 1000 UTC 20 May 2022
Forecast type: BECOMING: Conditions expected to become as follows by 2000 UTC 19 May 2022
Winds: variable direction winds at 6 MPH (5 knots; 2.6 m/s)
Visibility: 6 or more miles (10+ km)
Ceiling: at least 12,000 feet AGL
Clouds: few clouds at 3000 feet AGL
Weather: no significant weather forecast for this period
Text: BECMG 2010/2012 11010KT
Forecast period: 1000 to 1800 UTC 20 May 2022
Forecast type: BECOMING: Conditions expected to become as follows by 1200 UTC 20 May 2022
Winds: from the ESE (110 degrees) at 12 MPH (10 knots; 5.1 m/s)
Visibility: 6 or more miles (10+ km)
Ceiling: at least 12,000 feet AGL
Clouds: few clouds at 3000 feet AGL
Weather: no significant weather forecast for this period